createdAt,value
2019-02-17T00:00:58.891Z,9.00
2019-02-17T00:06:09.814Z,9.10
2019-02-17T00:11:13.019Z,9.10
2019-02-17T00:16:16.175Z,9.20
2019-02-17T00:21:19.609Z,9.20
2019-02-17T00:26:22.868Z,9.20
2019-02-17T00:31:26.322Z,9.30
2019-02-17T00:36:29.678Z,9.40
2019-02-17T00:41:33.158Z,9.40
2019-02-17T00:46:36.544Z,9.40
2019-02-17T00:51:39.979Z,9.50
2019-02-17T00:56:46.542Z,9.50
2019-02-17T01:01:49.930Z,9.40
2019-02-17T01:06:53.168Z,9.40
2019-02-17T01:11:59.242Z,9.60
2019-02-17T01:17:02.686Z,9.60
2019-02-17T01:22:06.862Z,9.60
2019-02-17T01:27:09.994Z,9.70
2019-02-17T01:32:13.399Z,9.70
2019-02-17T01:37:16.947Z,9.80
2019-02-17T01:42:23.179Z,9.70
2019-02-17T01:47:32.374Z,9.70
2019-02-17T01:52:38.861Z,9.70
2019-02-17T01:57:59.682Z,9.60
2019-02-17T02:03:03.395Z,9.60
2019-02-17T02:08:09.740Z,9.50
2019-02-17T02:13:16.406Z,9.40
2019-02-17T02:18:19.805Z,9.40
2019-02-17T02:23:25.137Z,9.40
2019-02-17T02:28:28.585Z,9.30
2019-02-17T02:33:41.416Z,9.30
2019-02-17T02:38:44.900Z,9.30
2019-02-17T02:43:48.173Z,8.80
2019-02-17T02:48:51.559Z,7.90
2019-02-17T02:53:54.793Z,7.60
2019-02-17T02:58:59.622Z,7.50
2019-02-17T03:04:03.125Z,7.30
2019-02-17T03:09:06.424Z,7.30
2019-02-17T03:14:09.641Z,7.40
2019-02-17T03:19:16.043Z,7.50
2019-02-17T03:24:19.261Z,7.80
2019-02-17T03:29:25.317Z,7.90
2019-02-17T03:34:28.643Z,7.90
2019-02-17T03:39:31.948Z,7.50
2019-02-17T03:44:35.411Z,7.30
2019-02-17T03:49:38.758Z,7.10
2019-02-17T03:54:41.908Z,7.20
2019-02-17T03:59:48.566Z,7.50
2019-02-17T04:04:51.874Z,7.40
2019-02-17T04:09:55.443Z,7.20
2019-02-17T04:14:58.885Z,7.20
2019-02-17T04:20:04.215Z,7.00
2019-02-17T04:25:08.343Z,6.90
2019-02-17T04:30:11.717Z,7.00
2019-02-17T04:35:15.113Z,7.20
2019-02-17T04:40:21.499Z,6.90
2019-02-17T04:45:24.918Z,6.80
2019-02-17T04:50:30.896Z,6.80
2019-02-17T04:55:34.194Z,7.20
2019-02-17T05:00:40.535Z,7.50
2019-02-17T05:05:43.020Z,7.30
2019-02-17T05:10:49.426Z,7.00
2019-02-17T05:15:52.667Z,7.50
2019-02-17T05:20:56.070Z,7.50
2019-02-17T05:25:59.577Z,7.00
2019-02-17T05:31:02.750Z,7.20
2019-02-17T05:36:06.054Z,7.20
2019-02-17T05:41:10.949Z,7.00
2019-02-17T05:46:14.444Z,7.00
2019-02-17T05:51:20.746Z,7.30
2019-02-17T05:56:24.198Z,7.50
2019-02-17T06:01:30.312Z,7.60
2019-02-17T06:06:33.636Z,7.60
2019-02-17T06:11:36.971Z,7.40
2019-02-17T06:16:40.184Z,7.10
2019-02-17T06:21:46.420Z,7.00
2019-02-17T06:26:50.012Z,6.40
2019-02-17T06:31:53.494Z,6.80
2019-02-17T06:37:02.923Z,6.80
2019-02-17T06:42:15.191Z,6.90
2019-02-17T06:47:22.508Z,6.90
2019-02-17T06:52:28.948Z,7.10
2019-02-17T06:57:38.753Z,7.10
2019-02-17T07:02:42.269Z,7.20
2019-02-17T07:07:45.787Z,7.30
2019-02-17T07:12:49.303Z,7.30
2019-02-17T07:17:53.942Z,7.30
2019-02-17T07:22:57.661Z,7.40
2019-02-17T07:28:01.339Z,7.40
2019-02-17T07:33:04.591Z,7.30
2019-02-17T07:38:12.295Z,7.40
2019-02-17T07:43:15.693Z,7.40
2019-02-17T07:48:19.059Z,7.40
2019-02-17T07:53:25.127Z,7.50
2019-02-17T07:58:29.975Z,7.30
2019-02-17T08:03:42.447Z,7.60
2019-02-17T08:08:45.816Z,7.70
2019-02-17T08:13:49.347Z,7.80
2019-02-17T08:18:52.748Z,7.90
2019-02-17T08:23:59.199Z,7.80
2019-02-17T08:29:02.819Z,7.80
2019-02-17T08:34:06.307Z,8.10
2019-02-17T08:39:09.848Z,8.10
2019-02-17T08:44:13.418Z,8.20
2019-02-17T08:49:16.700Z,8.50
2019-02-17T08:54:19.912Z,8.70
2019-02-17T08:59:23.163Z,9.10
2019-02-17T09:04:26.680Z,9.30
2019-02-17T09:09:30.093Z,9.50
2019-02-17T09:14:33.595Z,9.80
2019-02-17T09:19:40.124Z,10.00
2019-02-17T09:24:46.765Z,10.20
2019-02-17T09:29:50.874Z,10.10
2019-02-17T09:34:54.389Z,10.50
2019-02-17T09:39:57.768Z,10.70
2019-02-17T09:45:04.362Z,10.90
2019-02-17T09:50:08.972Z,11.00
2019-02-17T09:55:12.417Z,11.40
2019-02-17T10:00:15.999Z,12.00
2019-02-17T10:05:19.307Z,12.30
2019-02-17T10:10:28.764Z,13.20
2019-02-17T10:15:32.104Z,13.40
2019-02-17T10:20:37.791Z,14.20
2019-02-17T10:25:41.102Z,14.80
2019-02-17T10:30:44.431Z,15.10
2019-02-17T10:35:53.670Z,15.90
2019-02-17T10:41:02.784Z,15.90
2019-02-17T10:46:06.290Z,16.30
2019-02-17T10:51:09.599Z,17.10
2019-02-17T10:56:15.211Z,16.70
2019-02-17T11:01:18.544Z,17.00
2019-02-17T11:06:22.909Z,17.40
2019-02-17T11:11:26.131Z,17.50
2019-02-17T11:16:29.645Z,17.80
2019-02-17T11:21:33.065Z,19.00
2019-02-17T11:26:36.404Z,19.20
2019-02-17T11:31:39.540Z,19.30
2019-02-17T11:36:42.740Z,19.60
2019-02-17T11:41:46.198Z,18.60
2019-02-17T11:46:55.509Z,16.90
2019-02-17T11:51:58.934Z,16.90
2019-02-17T11:57:02.682Z,16.80
2019-02-17T12:02:09.091Z,17.20
2019-02-17T12:07:12.686Z,17.30
2019-02-17T12:12:19.117Z,17.30
2019-02-17T12:17:22.568Z,17.70
2019-02-17T12:22:30.599Z,16.50
2019-02-17T12:28:05.653Z,16.40
2019-02-17T12:33:18.275Z,17.70
2019-02-17T12:38:14.051Z,18.40
2019-02-17T12:43:17.297Z,18.70
2019-02-17T12:48:20.584Z,18.40
2019-02-17T12:53:24.004Z,17.80
2019-02-17T12:58:34.527Z,18.70
2019-02-17T13:03:37.769Z,19.00
2019-02-17T13:08:45.616Z,19.20
2019-02-17T13:13:49.174Z,18.60
2019-02-17T13:19:00.043Z,19.30
2019-02-17T13:24:06.401Z,19.10
2019-02-17T13:29:11.487Z,19.20
2019-02-17T13:34:15.005Z,18.80
2019-02-17T13:39:18.523Z,19.60
2019-02-17T13:44:26.536Z,20.20
2019-02-17T13:49:29.749Z,19.10
2019-02-17T13:54:33.165Z,19.70
2019-02-17T13:59:36.530Z,19.00
2019-02-17T14:04:43.268Z,18.70
2019-02-17T14:09:46.626Z,19.70
2019-02-17T14:14:50.091Z,19.80
2019-02-17T14:19:56.818Z,20.10
2019-02-17T14:25:00.398Z,20.30
2019-02-17T14:30:05.241Z,20.00
2019-02-17T14:35:17.824Z,20.70
2019-02-17T14:40:21.239Z,20.80
2019-02-17T14:45:27.403Z,20.70
2019-02-17T14:50:34.095Z,20.50
2019-02-17T14:55:37.417Z,20.40
2019-02-17T15:00:41.108Z,19.90
2019-02-17T15:05:44.442Z,19.90
2019-02-17T15:10:48.034Z,19.70
2019-02-17T15:15:54.429Z,19.50
2019-02-17T15:21:00.881Z,18.90
2019-02-17T15:26:04.431Z,18.30
2019-02-17T15:31:07.829Z,17.80
2019-02-17T15:36:11.430Z,17.40
2019-02-17T15:41:14.873Z,17.10
2019-02-17T15:46:18.177Z,16.80
2019-02-17T15:51:21.491Z,16.50
2019-02-17T15:56:28.149Z,16.30
2019-02-17T16:01:31.562Z,16.00
2019-02-17T16:06:34.437Z,15.90
2019-02-17T16:11:37.308Z,15.60
2019-02-17T16:16:40.140Z,15.40
2019-02-17T16:21:42.969Z,15.20
2019-02-17T16:26:48.579Z,15.00
2019-02-17T16:31:52.077Z,14.80
2019-02-17T16:37:00.028Z,14.50
2019-02-17T16:42:02.604Z,14.40
2019-02-17T16:47:05.474Z,14.30
2019-02-17T16:52:08.507Z,14.20
2019-02-17T16:57:11.869Z,14.10
2019-02-17T17:02:15.246Z,14.00
2019-02-17T17:07:18.793Z,13.90
2019-02-17T17:12:22.415Z,13.70
2019-02-17T17:17:25.930Z,13.70
2019-02-17T17:22:28.808Z,13.50
2019-02-17T17:27:32.284Z,13.50
2019-02-17T17:32:35.142Z,13.40
2019-02-17T17:37:44.149Z,13.30
2019-02-17T17:42:46.938Z,13.20
2019-02-17T17:47:57.815Z,13.10
2019-02-17T17:53:01.390Z,12.80
2019-02-17T17:58:04.803Z,12.80
2019-02-17T18:03:08.152Z,12.70
2019-02-17T18:08:11.492Z,12.90
2019-02-17T18:13:14.695Z,13.00
2019-02-17T18:18:18.145Z,12.70
2019-02-17T18:23:24.186Z,12.20
2019-02-17T18:28:27.481Z,12.40
2019-02-17T18:33:30.804Z,12.30
2019-02-17T18:38:34.095Z,12.10
2019-02-17T18:43:37.566Z,11.80
2019-02-17T18:48:40.777Z,11.60
2019-02-17T18:53:44.018Z,11.80
2019-02-17T18:58:54.458Z,11.20
2019-02-17T19:04:04.118Z,10.80
2019-02-17T19:09:07.843Z,10.70
2019-02-17T19:14:11.456Z,10.90
2019-02-17T19:19:14.700Z,11.10
2019-02-17T19:24:17.871Z,10.80
2019-02-17T19:29:21.388Z,11.00
2019-02-17T19:34:24.945Z,11.10
2019-02-17T19:39:28.320Z,11.00
2019-02-17T19:44:31.679Z,10.70
2019-02-17T19:49:34.904Z,10.60
2019-02-17T19:54:41.627Z,10.70
2019-02-17T19:59:45.012Z,10.60
2019-02-17T20:05:04.942Z,10.60
2019-02-17T20:10:08.202Z,10.40
2019-02-17T20:15:11.705Z,10.20
2019-02-17T20:20:20.241Z,10.20
2019-02-17T20:25:29.947Z,10.30
2019-02-17T20:30:39.618Z,10.40
2019-02-17T20:35:49.176Z,10.20
2019-02-17T20:40:52.550Z,10.20
2019-02-17T20:45:55.848Z,10.00
2019-02-17T20:51:00.753Z,10.00
2019-02-17T20:56:04.403Z,9.70
2019-02-17T21:01:16.271Z,9.30
2019-02-17T21:06:15.922Z,9.00
2019-02-17T21:11:19.207Z,9.10
2019-02-17T21:16:22.726Z,8.50
2019-02-17T21:21:32.176Z,8.60
2019-02-17T21:26:35.694Z,8.40
2019-02-17T21:31:42.118Z,8.60
2019-02-17T21:36:45.693Z,8.30
2019-02-17T21:41:50.010Z,8.20
2019-02-17T21:46:53.650Z,8.10
2019-02-17T21:51:57.005Z,8.20
2019-02-17T21:57:01.792Z,8.90
2019-02-17T22:02:05.354Z,9.10
2019-02-17T22:07:13.196Z,9.20
2019-02-17T22:12:16.637Z,9.10
2019-02-17T22:17:19.658Z,8.80
2019-02-17T22:22:23.064Z,8.60
2019-02-17T22:27:26.464Z,8.20
2019-02-17T22:32:29.997Z,8.10
2019-02-17T22:37:39.216Z,7.90
2019-02-17T22:42:38.816Z,8.00
2019-02-17T22:47:43.568Z,8.30
2019-02-17T22:52:46.947Z,8.40
2019-02-17T22:57:50.438Z,8.30
2019-02-17T23:02:53.952Z,8.50
2019-02-17T23:07:57.260Z,8.50
2019-02-17T23:13:02.414Z,8.60
2019-02-17T23:18:26.614Z,7.80
2019-02-17T23:23:31.052Z,7.90
2019-02-17T23:28:34.288Z,7.60
2019-02-17T23:33:37.700Z,7.50
2019-02-17T23:38:41.014Z,7.40
2019-02-17T23:43:47.126Z,7.00
2019-02-17T23:48:50.539Z,6.70
2019-02-17T23:53:53.733Z,6.70
2019-02-17T23:58:56.939Z,6.40
